Time;durP1;ratioP1;P1;durP2;ratioP2;P2;SDS_P1;SDS_P2;PMS_P1;PMS_P2;Temp;Humidity;BMP_temperature;BMP_pressure;BME280_temperature;BME280_humidity;BME280_pressure;Samples;Min_cycle;Max_cycle;Signal;HPM_P1;HPM_P2
2022/10/02 00:01:13;;;;;;;0.10;0.10;;;;;;;11.42;94.51;98704.22;5026230;28;20081;-68
2022/10/02 00:03:42;;;;;;;0.10;0.10;;;;;;;11.37;94.92;98706.25;5022706;28;20080;-68
2022/10/02 00:06:17;;;;;;;0.10;0.10;;;;;;;11.29;94.20;98700.38;5025484;28;20501;-67
2022/10/02 00:08:45;;;;;;;0.10;0.10;;;;;;;11.26;93.88;98705.66;5048116;28;20067;-67
2022/10/02 00:11:16;;;;;;;0.20;0.20;;;;;;;11.27;92.58;98699.06;5045096;28;20041;-67
2022/10/02 00:13:46;;;;;;;0.20;0.20;;;;;;;11.34;92.74;98707.66;5047359;28;20488;-67
2022/10/02 00:16:23;;;;;;;0.10;0.10;;;;;;;11.39;92.06;98704.00;5045294;28;20045;-66
2022/10/02 00:18:49;;;;;;;0.17;0.17;;;;;;;11.44;92.43;98710.19;5049135;28;20049;-67
2022/10/02 00:21:39;;;;;;;0.10;0.10;;;;;;;11.50;91.31;98708.16;5047379;28;20155;-67
2022/10/02 00:24:11;;;;;;;0.28;0.13;;;;;;;11.56;91.67;98720.59;5049221;28;20077;-67
2022/10/02 00:26:40;;;;;;;0.20;0.20;;;;;;;11.57;91.12;98714.00;5047524;28;20040;-65
2022/10/02 00:29:24;;;;;;;0.10;0.10;;;;;;;11.57;90.38;98716.75;5045031;28;20045;-68
2022/10/02 00:32:03;;;;;;;0.10;0.10;;;;;;;11.60;90.34;98718.06;5044690;28;20099;-66
2022/10/02 00:34:37;;;;;;;0.10;0.10;;;;;;;11.60;89.45;98718.84;5040648;28;20148;-68
2022/10/02 00:37:14;;;;;;;0.10;0.10;;;;;;;11.59;87.96;98722.72;5047991;28;20492;-66
2022/10/02 00:39:57;;;;;;;0.13;0.13;;;;;;;11.58;87.52;98729.31;5047293;28;20045;-67
2022/10/02 00:43:03;;;;;;;0.20;0.20;;;;;;;11.56;86.91;98719.81;5043818;28;20284;-67
2022/10/02 00:46:01;;;;;;;0.10;0.10;;;;;;;11.51;85.32;98720.72;5038614;28;20123;-66
2022/10/02 00:48:44;;;;;;;0.20;0.20;;;;;;;11.54;86.41;98728.31;5024370;28;20053;-68
2022/10/02 00:51:24;;;;;;;0.20;0.20;;;;;;;11.51;85.10;98728.94;5047545;28;20053;-68
2022/10/02 00:54:01;;;;;;;0.13;0.13;;;;;;;11.51;84.45;98722.63;5046543;28;20056;-67
2022/10/02 00:56:31;;;;;;;0.10;0.10;;;;;;;11.51;83.42;98723.47;5046333;28;20509;-65
2022/10/02 00:59:23;;;;;;;0.20;0.20;;;;;;;11.49;83.23;98710.06;5046679;28;20159;-67
2022/10/02 01:01:56;;;;;;;0.10;0.10;;;;;;;11.53;83.07;98718.47;5049319;28;20049;-67
2022/10/02 01:04:29;;;;;;;0.15;0.15;;;;;;;11.55;83.46;98716.25;5046510;28;20141;-68
2022/10/02 01:06:55;;;;;;;0.20;0.20;;;;;;;11.52;82.47;98713.31;5048767;28;20048;-68
2022/10/02 01:09:23;;;;;;;0.10;0.10;;;;;;;11.51;83.46;98715.25;5046389;28;20471;-68
2022/10/02 01:11:50;;;;;;;0.10;0.10;;;;;;;11.43;82.82;98714.03;5057959;28;20523;-67
2022/10/02 01:14:16;;;;;;;0.20;0.20;;;;;;;11.37;83.40;98728.94;5064931;28;20059;-67
2022/10/02 01:16:43;;;;;;;0.10;0.10;;;;;;;11.26;83.60;98713.88;5065525;28;20455;-68
2022/10/02 01:19:23;;;;;;;0.10;0.10;;;;;;;11.20;84.38;98724.13;5066902;28;20041;-67
2022/10/02 01:21:54;;;;;;;0.10;0.10;;;;;;;11.11;85.39;98713.06;5066747;28;20565;-66
2022/10/02 01:24:28;;;;;;;0.10;0.10;;;;;;;11.10;85.88;98711.47;5066512;28;20074;-67
2022/10/02 01:26:57;;;;;;;0.20;0.20;;;;;;;11.13;85.97;98719.03;5066766;28;20135;-68
2022/10/02 01:29:23;;;;;;;0.20;0.20;;;;;;;11.11;85.33;98713.06;5066097;28;20147;-68
2022/10/02 01:31:49;;;;;;;0.10;0.10;;;;;;;11.08;85.45;98724.59;5061658;28;20135;-68
2022/10/02 01:34:15;;;;;;;0.20;0.20;;;;;;;11.05;85.31;98733.44;5066629;28;20128;-66
2022/10/02 01:36:42;;;;;;;0.10;0.10;;;;;;;11.05;83.99;98733.44;5050905;28;20084;-67
2022/10/02 01:39:08;;;;;;;0.10;0.10;;;;;;;10.99;83.82;98729.97;5044442;28;20513;-67
2022/10/02 01:41:40;;;;;;;0.10;0.10;;;;;;;10.96;83.68;98730.59;5045531;28;20049;-68
2022/10/02 01:44:08;;;;;;;0.10;0.10;;;;;;;10.90;83.41;98742.75;5045203;28;20449;-67
2022/10/02 01:46:39;;;;;;;0.10;0.10;;;;;;;10.80;83.11;98759.34;5046046;28;20425;-67
2022/10/02 01:49:28;;;;;;;0.20;0.20;;;;;;;10.69;83.33;98739.59;5044355;28;20064;-67
2022/10/02 01:52:09;;;;;;;0.10;0.10;;;;;;;10.62;84.28;98731.78;5033705;28;20057;-68
2022/10/02 01:54:49;;;;;;;0.10;0.10;;;;;;;10.57;83.63;98729.16;5047901;28;20143;-67
2022/10/02 01:57:27;;;;;;;0.10;0.10;;;;;;;10.56;83.43;98743.91;5044576;28;20261;-67
2022/10/02 02:00:07;;;;;;;0.10;0.10;;;;;;;10.48;83.85;98748.16;5041530;28;20512;-67
2022/10/02 02:02:50;;;;;;;0.20;0.20;;;;;;;10.43;84.77;98743.59;5044158;28;20091;-66
2022/10/02 02:05:28;;;;;;;0.10;0.10;;;;;;;10.39;84.51;98763.56;5044834;28;20508;-67
2022/10/02 02:08:05;;;;;;;0.20;0.10;;;;;;;10.41;83.07;98750.44;5045369;28;20307;-67
2022/10/02 02:10:40;;;;;;;0.10;0.10;;;;;;;10.38;83.58;98732.72;5046160;28;20056;-67
2022/10/02 02:13:13;;;;;;;0.10;0.10;;;;;;;10.38;84.06;98740.09;5043578;28;20052;-67
2022/10/02 02:16:05;;;;;;;0.10;0.10;;;;;;;10.39;82.50;98728.88;5043400;28;20064;-67
2022/10/02 02:18:38;;;;;;;0.10;0.10;;;;;;;10.36;83.14;98740.38;5045081;28;20423;-65
2022/10/02 02:21:09;;;;;;;0.10;0.10;;;;;;;10.35;82.84;98742.31;5044431;28;20041;-68
2022/10/02 02:23:38;;;;;;;0.10;0.10;;;;;;;10.44;81.97;98756.13;5027317;28;20045;-67
2022/10/02 02:26:11;;;;;;;0.10;0.10;;;;;;;10.50;80.25;98746.72;5045666;28;20045;-66
2022/10/02 02:28:42;;;;;;;0.10;0.10;;;;;;;10.58;80.79;98750.69;5043561;28;20068;-67
2022/10/02 02:31:14;;;;;;;0.10;0.10;;;;;;;10.67;79.94;98753.53;5044684;28;20044;-67
2022/10/02 02:33:44;;;;;;;0.10;0.10;;;;;;;10.70;80.02;98738.47;5044182;28;20065;-67
2022/10/02 02:36:15;;;;;;;0.10;0.10;;;;;;;10.74;78.87;98756.72;5045919;28;20040;-66
2022/10/02 02:38:47;;;;;;;0.10;0.10;;;;;;;10.73;79.04;98744.16;5044976;28;20049;-67
2022/10/02 02:41:17;;;;;;;0.10;0.10;;;;;;;10.73;78.90;98744.16;5043802;28;20079;-67
2022/10/02 02:43:48;;;;;;;0.20;0.20;;;;;;;10.74;78.63;98753.16;5042321;28;20459;-66
2022/10/02 02:46:22;;;;;;;0.10;0.10;;;;;;;10.71;79.01;98751.03;5042765;28;20294;-66
2022/10/02 02:48:54;;;;;;;0.10;0.10;;;;;;;10.74;78.63;98742.22;5019259;28;20041;-67
2022/10/02 02:51:26;;;;;;;0.20;0.20;;;;;;;10.72;78.83;98749.91;5025528;28;20571;-65
2022/10/02 02:53:58;;;;;;;0.10;0.10;;;;;;;10.74;78.82;98737.56;5024030;28;20062;-66
2022/10/02 02:56:27;;;;;;;0.10;0.10;;;;;;;10.74;78.29;98753.97;5026028;28;20143;-66
2022/10/02 02:58:57;;;;;;;0.10;0.10;;;;;;;10.71;78.51;98746.38;5041851;28;20070;-66
2022/10/02 03:01:24;;;;;;;0.10;0.10;;;;;;;10.71;78.14;98751.84;5043400;28;20076;-64
2022/10/02 03:03:50;;;;;;;0.10;0.10;;;;;;;10.70;77.64;98761.16;5042196;28;20049;-66
2022/10/02 03:06:30;;;;;;;0.10;0.10;;;;;;;10.64;77.94;98743.22;5043417;28;20151;-66
2022/10/02 03:08:57;;;;;;;0.10;0.10;;;;;;;10.61;78.38;98738.34;5053369;28;20064;-67
2022/10/02 03:11:33;;;;;;;0.10;0.10;;;;;;;10.63;78.80;98739.69;5062348;28;20044;-66
2022/10/02 03:14:08;;;;;;;0.10;0.10;;;;;;;10.62;79.11;98740.78;5062421;28;20601;-66
2022/10/02 03:16:45;;;;;;;0.10;0.10;;;;;;;10.66;79.14;98742.94;5063278;28;20451;-65
2022/10/02 03:19:24;;;;;;;0.10;0.10;;;;;;;10.71;78.88;98749.13;5059224;28;20041;-66
2022/10/02 03:22:02;;;;;;;0.10;0.10;;;;;;;10.70;78.85;98747.50;5065704;28;20577;-66
2022/10/02 03:24:34;;;;;;;0.13;0.13;;;;;;;10.70;78.77;98750.22;5063446;28;20455;-66
2022/10/02 03:27:07;;;;;;;0.10;0.10;;;;;;;10.63;79.25;98761.56;5064774;28;20064;-66
2022/10/02 03:29:39;;;;;;;0.10;0.10;;;;;;;10.60;79.56;98759.41;5060654;28;20032;-66
2022/10/02 03:32:08;;;;;;;0.10;0.10;;;;;;;10.57;79.33;98764.69;5065918;28;20270;-67
2022/10/02 03:34:37;;;;;;;0.10;0.10;;;;;;;10.54;79.51;98765.28;5063949;28;20056;-66
2022/10/02 03:37:03;;;;;;;0.10;0.10;;;;;;;10.50;80.05;98756.88;5065098;28;20052;-66
2022/10/02 03:39:29;;;;;;;0.10;0.10;;;;;;;10.46;80.41;98769.50;5062510;28;20052;-65
2022/10/02 03:41:55;;;;;;;0.10;0.10;;;;;;;10.49;79.55;98760.72;5069781;28;20125;-66
2022/10/02 03:44:21;;;;;;;0.10;0.10;;;;;;;10.46;80.31;98767.56;5069150;28;20135;-66
2022/10/02 03:46:47;;;;;;;0.40;0.10;;;;;;;10.45;79.93;98776.06;5065606;28;20052;-66
2022/10/02 03:49:15;;;;;;;0.10;0.10;;;;;;;10.47;80.85;98769.19;5066950;28;20407;-66
2022/10/02 03:51:41;;;;;;;0.10;0.10;;;;;;;10.54;79.69;98765.28;5062643;28;20051;-66
2022/10/02 03:54:14;;;;;;;0.10;0.10;;;;;;;10.52;80.50;98754.63;5064456;28;20060;-65
2022/10/02 03:56:46;;;;;;;0.10;0.10;;;;;;;10.54;79.49;98752.41;5067370;28;20049;-66
2022/10/02 03:59:23;;;;;;;0.10;0.10;;;;;;;10.52;78.69;98745.63;5064509;28;20093;-65
2022/10/02 04:01:54;;;;;;;0.10;0.10;;;;;;;10.46;78.70;98745.72;5067495;28;20086;-66
2022/10/02 04:04:27;;;;;;;0.10;0.10;;;;;;;10.43;77.28;98745.50;5067836;28;20048;-65
2022/10/02 04:06:59;;;;;;;0.10;0.10;;;;;;;10.37;76.37;98755.66;5065932;28;20072;-66
2022/10/02 04:09:31;;;;;;;0.10;0.10;;;;;;;10.32;77.48;98744.81;5063652;28;20060;-66
2022/10/02 04:12:01;;;;;;;0.10;0.10;;;;;;;10.40;77.30;98763.28;5064981;28;20041;-66
2022/10/02 04:14:32;;;;;;;0.10;0.10;;;;;;;10.30;76.05;98767.00;5065288;28;20052;-66
2022/10/02 04:17:03;;;;;;;0.10;0.10;;;;;;;10.31;75.80;98773.25;5064521;28;20053;-66
2022/10/02 04:19:36;;;;;;;0.10;0.10;;;;;;;10.28;75.96;98777.38;5065067;28;20464;-66
2022/10/02 04:22:09;;;;;;;0.43;0.10;;;;;;;10.28;75.66;98774.66;5065491;28;20045;-66
2022/10/02 04:24:43;;;;;;;0.10;0.10;;;;;;;10.28;74.54;98780.13;5065913;28;20058;-66
2022/10/02 04:27:14;;;;;;;0.10;0.10;;;;;;;10.26;75.07;98770.63;5067184;28;20423;-66
2022/10/02 04:29:46;;;;;;;0.10;0.10;;;;;;;10.24;75.07;98775.56;5068420;28;20082;-65
2022/10/02 04:32:15;;;;;;;0.10;0.10;;;;;;;10.22;74.95;98759.47;5067640;28;20048;-64
2022/10/02 04:34:43;;;;;;;0.10;0.10;;;;;;;10.32;74.87;98775.72;5064183;28;20040;-66
2022/10/02 04:37:30;;;;;;;0.10;0.10;;;;;;;10.36;75.17;98776.72;5065494;28;20129;-66
2022/10/02 04:40:06;;;;;;;0.10;0.10;;;;;;;10.30;74.66;98783.41;5061576;28;20045;-66
2022/10/02 04:42:49;;;;;;;0.20;0.20;;;;;;;10.21;74.68;98790.63;5067954;28;20508;-66
2022/10/02 04:45:41;;;;;;;0.10;0.10;;;;;;;10.15;74.77;98792.63;5067767;28;20055;-66
2022/10/02 04:48:38;;;;;;;0.10;0.10;;;;;;;10.17;74.98;98801.34;5064566;28;20097;-65
2022/10/02 04:51:18;;;;;;;0.10;0.10;;;;;;;10.13;74.54;98797.56;5065550;28;20151;-66
2022/10/02 04:53:58;;;;;;;0.10;0.10;;;;;;;10.18;75.23;98799.44;5060950;28;20230;-66
2022/10/02 04:56:38;;;;;;;0.10;0.10;;;;;;;10.23;75.05;98793.88;5046984;28;20147;-66
2022/10/02 04:59:15;;;;;;;0.10;0.10;;;;;;;10.24;75.31;98787.28;5044659;28;20132;-67
2022/10/02 05:02:00;;;;;;;0.10;0.10;;;;;;;10.28;75.00;98787.53;5044410;28;20428;-66
2022/10/02 05:04:46;;;;;;;0.10;0.10;;;;;;;10.28;73.92;98782.84;5042451;28;20051;-66
2022/10/02 05:07:45;;;;;;;0.10;0.10;;;;;;;10.23;74.44;98758.34;5068352;28;20064;-66
2022/10/02 05:10:37;;;;;;;0.10;0.10;;;;;;;10.33;75.34;98771.03;5058717;28;20570;-66
2022/10/02 05:13:13;;;;;;;0.10;0.10;;;;;;;10.50;75.18;98776.00;5047188;28;20045;-67
2022/10/02 05:16:16;;;;;;;0.10;0.10;;;;;;;10.60;75.18;98773.06;5064032;28;20047;-66
2022/10/02 05:19:07;;;;;;;0.10;0.10;;;;;;;10.60;73.39;98777.72;5057123;28;20147;-68
2022/10/02 05:21:50;;;;;;;0.20;0.20;;;;;;;10.40;72.87;98776.94;5065905;28;20048;-66
2022/10/02 05:24:35;;;;;;;0.10;0.10;;;;;;;10.20;73.88;98795.28;5064838;28;20456;-66
2022/10/02 05:27:14;;;;;;;0.22;0.17;;;;;;;10.15;74.21;98806.28;5065820;28;20577;-66
2022/10/02 05:30:04;;;;;;;0.10;0.10;;;;;;;10.04;74.49;98791.16;5067107;28;20072;-65
2022/10/02 05:33:09;;;;;;;0.10;0.10;;;;;;;10.04;74.88;98786.50;5067787;28;20049;-65
2022/10/02 05:36:08;;;;;;;0.10;0.10;;;;;;;10.06;74.75;98794.38;4699209;28;10000248;-66
2022/10/02 05:39:00;;;;;;;0.10;0.10;;;;;;;10.09;74.07;98791.09;5043160;28;20140;-66
2022/10/02 05:41:36;;;;;;;0.10;0.10;;;;;;;10.11;74.77;98782.59;5039332;28;20112;-66
2022/10/02 05:44:08;;;;;;;0.10;0.10;;;;;;;10.13;74.42;98797.56;5039028;28;20141;-66
2022/10/02 05:46:39;;;;;;;0.10;0.10;;;;;;;10.12;74.50;98800.59;5040890;28;20045;-67
2022/10/02 05:49:13;;;;;;;0.10;0.10;;;;;;;10.20;74.89;98800.72;5044117;28;20091;-65
2022/10/02 05:51:46;;;;;;;0.10;0.10;;;;;;;10.23;74.20;98799.34;5043049;28;20048;-66
2022/10/02 05:54:21;;;;;;;0.10;0.10;;;;;;;10.19;74.06;98799.09;5042542;28;20049;-66
2022/10/02 05:56:55;;;;;;;0.10;0.10;;;;;;;10.10;73.43;98791.88;5040236;28;20061;-66
2022/10/02 05:59:31;;;;;;;0.10;0.10;;;;;;;10.00;73.57;98790.94;5038787;28;20531;-66
2022/10/02 06:02:03;;;;;;;0.20;0.20;;;;;;;10.04;75.24;98794.69;5042141;28;20569;-66
2022/10/02 06:04:34;;;;;;;0.10;0.10;;;;;;;10.10;74.20;98797.34;5039543;28;20053;-66
2022/10/02 06:07:05;;;;;;;0.10;0.10;;;;;;;10.13;74.77;98791.28;5040676;28;20060;-67
2022/10/02 06:09:35;;;;;;;0.13;0.13;;;;;;;10.24;74.55;98792.75;5040550;28;20136;-65
2022/10/02 06:12:08;;;;;;;0.10;0.10;;;;;;;10.28;73.50;98801.97;5038485;28;20072;-65
2022/10/02 06:14:38;;;;;;;0.17;0.17;;;;;;;10.20;73.88;98808.94;5040547;28;20045;-66
2022/10/02 06:17:10;;;;;;;0.10;0.10;;;;;;;10.09;73.51;98821.13;5042907;28;20053;-67
2022/10/02 06:19:39;;;;;;;0.10;0.10;;;;;;;10.04;73.29;98808.34;5041624;28;20049;-67
2022/10/02 06:22:11;;;;;;;0.10;0.10;;;;;;;10.00;73.72;98809.25;5039990;28;20049;-66
2022/10/02 06:24:45;;;;;;;0.10;0.10;;;;;;;9.99;74.19;98808.44;5035917;28;20036;-66
2022/10/02 06:27:20;;;;;;;0.10;0.10;;;;;;;10.11;74.40;98812.63;5041387;28;20056;-66
2022/10/02 06:29:53;;;;;;;0.10;0.10;;;;;;;10.06;74.01;98800.69;5041807;28;20520;-66
2022/10/02 06:32:33;;;;;;;0.10;0.10;;;;;;;10.23;74.37;98821.19;5042986;28;20075;-66
2022/10/02 06:35:02;;;;;;;0.10;0.10;;;;;;;10.20;73.57;98816.31;5035328;28;20496;-66
2022/10/02 06:37:57;;;;;;;0.10;0.10;;;;;;;10.11;73.14;98826.28;5019149;28;20080;-66
2022/10/02 06:40:41;;;;;;;0.10;0.10;;;;;;;9.87;73.20;98824.44;5018506;28;20053;-66
2022/10/02 06:43:20;;;;;;;0.17;0.17;;;;;;;9.68;74.29;98822.50;5047605;28;20048;-66
2022/10/02 06:45:57;;;;;;;0.10;0.10;;;;;;;9.71;74.96;98830.09;5060994;28;20436;-65
2022/10/02 06:48:32;;;;;;;0.10;0.10;;;;;;;9.69;74.06;98826.84;5043188;28;20044;-65
2022/10/02 06:51:09;;;;;;;0.20;0.20;;;;;;;9.69;74.17;98828.75;5040667;28;20139;-66
2022/10/02 06:53:55;;;;;;;0.10;0.10;;;;;;;9.77;73.76;98839.84;5041293;28;20068;-66
2022/10/02 06:56:38;;;;;;;0.10;0.10;;;;;;;9.72;72.94;98839.91;5041432;28;20118;-66
2022/10/02 06:59:21;;;;;;;0.10;0.10;;;;;;;9.65;73.27;98831.25;5043280;28;20679;-66
2022/10/02 07:01:55;;;;;;;0.10;0.10;;;;;;;9.71;73.47;98823.81;5040182;28;20053;-66
2022/10/02 07:04:50;;;;;;;0.10;0.10;;;;;;;9.76;72.97;98821.84;5019683;28;20172;-66
2022/10/02 07:07:30;;;;;;;0.20;0.20;;;;;;;9.70;74.28;98816.75;5030795;28;20061;-65
2022/10/02 07:10:08;;;;;;;0.10;0.10;;;;;;;9.82;74.13;98827.22;5047216;28;20053;-66
2022/10/02 07:13:00;;;;;;;0.10;0.10;;;;;;;9.87;73.97;98832.63;5019170;28;20467;-65
2022/10/02 07:15:48;;;;;;;0.10;0.10;;;;;;;9.64;74.08;98796.88;5026899;28;20049;-66
2022/10/02 07:18:23;;;;;;;0.10;0.10;;;;;;;9.91;73.30;98836.41;5036986;28;20140;-66
2022/10/02 07:20:59;;;;;;;0.10;0.10;;;;;;;9.94;72.93;98849.44;5026659;28;20199;-65
2022/10/02 07:23:41;;;;;;;0.10;0.10;;;;;;;9.86;72.21;98836.47;5049400;28;20415;-67
2022/10/02 07:26:39;;;;;;;0.10;0.10;;;;;;;9.79;72.51;98840.34;5058429;28;20610;-68
2022/10/02 07:29:24;;;;;;;0.20;0.20;;;;;;;9.68;73.39;98844.34;5059173;28;20430;-66
2022/10/02 07:32:10;;;;;;;0.10;0.10;;;;;;;9.74;73.34;98836.88;5018042;28;20132;-66
2022/10/02 07:34:42;;;;;;;0.10;0.10;;;;;;;9.89;72.91;98835.88;5024219;28;20060;-65
2022/10/02 07:37:20;;;;;;;0.10;0.10;;;;;;;9.92;73.19;98829.81;5036070;28;20413;-66
2022/10/02 07:40:05;;;;;;;0.10;0.10;;;;;;;10.07;72.89;98846.00;5026898;28;20459;-66
2022/10/02 07:42:58;;;;;;;0.22;0.13;;;;;;;10.10;73.03;98838.31;5036525;28;20461;-66
2022/10/02 07:45:35;;;;;;;0.17;0.17;;;;;;;10.17;72.64;98845.03;5037572;28;20064;-66
2022/10/02 07:48:26;;;;;;;0.10;0.10;;;;;;;10.16;72.90;98842.63;5027051;28;20056;-66
2022/10/02 07:51:04;;;;;;;0.10;0.10;;;;;;;10.08;72.54;98828.50;5026044;28;20048;-66
2022/10/02 07:53:39;;;;;;;0.32;0.30;;;;;;;10.29;72.40;98833.66;5042714;28;20195;-65
2022/10/02 07:56:10;;;;;;;0.20;0.20;;;;;;;10.80;70.46;98824.97;5044332;28;20071;-69
2022/10/02 07:58:42;;;;;;;0.20;0.20;;;;;;;11.19;68.91;98821.00;5037945;28;20037;-67
2022/10/02 08:01:12;;;;;;;0.20;0.20;;;;;;;11.35;68.11;98818.75;5039777;28;20147;-66
2022/10/02 08:03:47;;;;;;;0.30;0.30;;;;;;;12.21;65.12;98824.66;5022869;28;20049;-66
2022/10/02 08:06:15;;;;;;;0.30;0.30;;;;;;;13.14;62.77;98827.84;5041668;28;20049;-70
2022/10/02 08:08:51;;;;;;;0.30;0.30;;;;;;;13.82;59.50;98815.81;5042622;28;20538;-68
2022/10/02 08:11:29;;;;;;;0.37;0.37;;;;;;;14.37;57.31;98827.31;5036454;28;20408;-67
2022/10/02 08:14:01;;;;;;;0.30;0.30;;;;;;;14.46;56.65;98832.81;5033779;28;20349;-66
2022/10/02 08:16:33;;;;;;;0.30;0.30;;;;;;;14.74;56.20;98835.25;5038981;28;20060;-66
2022/10/02 08:19:06;;;;;;;0.40;0.40;;;;;;;14.78;55.84;98832.66;5037669;28;20069;-66
2022/10/02 08:21:39;;;;;;;0.30;0.30;;;;;;;15.07;55.32;98845.69;5032768;28;20067;-66
2022/10/02 08:24:12;;;;;;;0.30;0.30;;;;;;;14.50;56.53;98860.47;5040840;28;20416;-66
2022/10/02 08:26:42;;;;;;;0.40;0.40;;;;;;;14.05;58.35;98837.66;5038078;28;20129;-66
2022/10/02 08:29:15;;;;;;;0.30;0.30;;;;;;;14.06;58.90;98846.72;5045996;28;20093;-66
2022/10/02 08:31:42;;;;;;;0.52;0.38;;;;;;;13.86;59.07;98843.44;5042467;28;20051;-66
2022/10/02 08:34:16;;;;;;;0.30;0.30;;;;;;;13.44;60.29;98850.13;5046050;28;20128;-66
2022/10/02 08:37:01;;;;;;;0.30;0.30;;;;;;;12.96;62.33;98845.34;5037050;28;20160;-66
2022/10/02 08:39:43;;;;;;;0.50;0.50;;;;;;;13.55;61.78;98830.59;5046198;28;20404;-66
2022/10/02 08:42:55;;;;;;;0.50;0.50;;;;;;;14.80;58.02;98836.66;5048062;28;20033;-67
2022/10/02 08:45:49;;;;;;;0.60;0.60;;;;;;;15.69;55.10;98840.72;5041408;28;20041;-66
2022/10/02 08:48:53;;;;;;;0.60;0.60;;;;;;;16.36;52.54;98845.66;5044918;28;20075;-66
2022/10/02 08:51:57;;;;;;;0.45;0.45;;;;;;;16.01;53.29;98845.94;5027340;28;20688;-67
2022/10/02 08:55:08;;;;;;;0.60;0.60;;;;;;;16.01;53.11;98843.19;5030059;28;20049;-67
2022/10/02 08:58:02;;;;;;;0.30;0.30;;;;;;;16.26;51.36;98848.81;5031940;28;20073;-66
2022/10/02 09:00:37;;;;;;;0.50;0.50;;;;;;;15.23;54.32;98847.91;5043724;28;20041;-67
2022/10/02 09:03:34;;;;;;;0.40;0.40;;;;;;;15.62;53.59;98845.97;5041571;28;20068;-67
2022/10/02 09:06:15;;;;;;;0.40;0.40;;;;;;;15.43;55.17;98841.66;4690799;28;9999925;-68
2022/10/02 09:09:06;;;;;;;0.40;0.40;;;;;;;15.30;54.80;98835.25;5035076;28;20295;-67
2022/10/02 09:12:20;;;;;;;0.50;0.50;;;;;;;14.95;54.94;98845.53;5041555;28;20048;-67
2022/10/02 09:14:52;;;;;;;0.35;0.35;;;;;;;14.45;56.07;98842.19;4979764;28;20604;-67
2022/10/02 09:17:53;;;;;;;0.40;0.40;;;;;;;14.07;57.39;98845.59;5017087;28;20503;-67
2022/10/02 09:20:40;;;;;;;0.30;0.30;;;;;;;13.86;58.02;98843.44;5040050;28;20567;-67
2022/10/02 09:23:57;;;;;;;0.30;0.30;;;;;;;13.61;58.05;98849.34;5036396;28;20057;-67
2022/10/02 09:26:44;;;;;;;0.30;0.30;;;;;;;13.23;59.59;98825.13;5036893;28;20115;-66
2022/10/02 09:29:38;;;;;;;0.30;0.30;;;;;;;13.19;59.88;98844.16;5044005;28;20060;-66
2022/10/02 09:32:39;;;;;;;0.30;0.30;;;;;;;13.15;60.10;98847.84;5036833;28;20254;-66
2022/10/02 09:35:33;;;;;;;0.30;0.30;;;;;;;13.12;60.00;98838.31;5037967;28;20041;-66
2022/10/02 09:38:28;;;;;;;0.30;0.30;;;;;;;13.15;60.17;98837.69;5043329;28;20080;-67
2022/10/02 09:41:26;;;;;;;0.47;0.22;;;;;;;12.95;60.69;98844.50;5043364;28;20037;-68
2022/10/02 09:44:28;;;;;;;0.30;0.30;;;;;;;12.90;60.82;98858.38;5042634;28;20420;-66
2022/10/02 09:47:23;;;;;;;0.20;0.20;;;;;;;12.73;60.87;98864.53;5031139;28;20524;-67
2022/10/02 09:50:25;;;;;;;0.20;0.20;;;;;;;12.51;61.40;98870.81;5041945;28;20045;-66
2022/10/02 09:53:36;;;;;;;0.30;0.30;;;;;;;12.41;61.82;98874.63;5041820;28;20056;-66
2022/10/02 09:56:44;;;;;;;0.30;0.30;;;;;;;12.45;61.93;98868.22;5018543;28;20049;-67
2022/10/02 09:59:53;;;;;;;0.43;0.30;;;;;;;12.65;61.16;98859.81;5003942;28;20616;-67
2022/10/02 10:02:52;;;;;;;0.35;0.35;;;;;;;12.55;61.30;98856.19;5005866;28;20188;-66
2022/10/02 10:05:42;;;;;;;0.90;0.35;;;;;;;12.57;60.55;98873.13;4996967;28;20119;-66
2022/10/02 10:08:36;;;;;;;0.30;0.30;;;;;;;12.47;61.64;98857.75;5018315;28;20046;-66
2022/10/02 10:11:33;;;;;;;0.30;0.30;;;;;;;12.48;61.45;98866.75;5017675;28;20410;-66
2022/10/02 10:14:29;;;;;;;0.30;0.30;;;;;;;12.42;62.01;98848.81;5017655;28;20530;-66
2022/10/02 10:17:31;;;;;;;0.30;0.30;;;;;;;12.55;61.79;98844.41;5002752;28;20084;-66
2022/10/02 10:20:15;;;;;;;0.30;0.30;;;;;;;12.80;60.02;98828.44;5005251;28;20058;-66
2022/10/02 10:23:22;;;;;;;0.30;0.30;;;;;;;13.05;59.99;98848.91;5019871;28;20513;-66
2022/10/02 10:26:03;;;;;;;;;;;;;;;13.32;59.08;98842.41;5019754;28;20077;-66
2022/10/02 10:29:13;;;;;;;0.30;0.30;;;;;;;13.57;58.13;98847.56;5040833;28;19924;-66
2022/10/02 10:32:11;;;;;;;0.30;0.30;;;;;;;13.32;58.75;98852.59;5043175;28;20237;-66
2022/10/02 10:35:06;;;;;;;0.30;0.30;;;;;;;13.19;59.56;98857.88;5043612;28;20148;-66
2022/10/02 10:41:08;;;;;;;0.30;0.30;;;;;;;12.82;60.19;98850.88;5010540;28;20160;-66
2022/10/02 10:44:23;;;;;;;0.40;0.40;;;;;;;12.87;59.71;98845.25;5040988;28;20037;-66
2022/10/02 10:47:13;;;;;;;0.52;0.52;;;;;;;13.45;58.29;98839.91;4990826;28;20058;-66
2022/10/02 10:50:17;;;;;;;0.50;0.50;;;;;;;14.11;56.47;98836.34;4985180;28;20108;-65
2022/10/02 10:53:04;;;;;;;0.30;0.30;;;;;;;14.48;55.36;98832.50;4965957;28;20065;-66
2022/10/02 10:55:47;;;;;;;;;;;;;;;14.85;54.48;98828.25;4992123;28;20048;-65
2022/10/02 10:58:24;;;;;;;0.63;0.63;;;;;;;15.87;51.90;98829.59;4975247;28;20035;-65
2022/10/02 11:01:05;;;;;;;0.30;0.30;;;;;;;15.93;51.09;98833.00;4989124;28;20050;-65
2022/10/02 11:03:57;;;;;;;0.40;0.40;;;;;;;15.47;52.25;98833.56;4987141;28;20042;-67
2022/10/02 11:06:49;;;;;;;0.40;0.40;;;;;;;15.27;52.86;98835.09;4957291;28;20054;-67
2022/10/02 11:10:04;;;;;;;0.40;0.40;;;;;;;15.09;52.85;98835.16;4993389;28;20060;-67
2022/10/02 11:12:58;;;;;;;0.40;0.40;;;;;;;14.79;53.78;98826.81;4987806;28;20050;-66
2022/10/02 11:16:05;;;;;;;1.40;1.30;;;;;;;16.62;50.75;98824.50;4982331;28;20556;-67
2022/10/02 11:18:44;;;;;;;1.10;1.10;;;;;;;19.70;44.49;98825.31;5033338;28;20132;-66
2022/10/02 11:21:27;;;;;;;1.40;1.30;;;;;;;21.27;40.90;98810.66;5021761;28;20239;-66
2022/10/02 11:24:20;;;;;;;0.98;0.98;;;;;;;22.47;37.72;98809.59;5022851;28;20041;-67
2022/10/02 11:27:02;;;;;;;1.50;1.40;;;;;;;23.69;35.97;98819.53;5040411;28;20056;-67
2022/10/02 11:29:59;;;;;;;0.30;0.30;;;;;;;21.99;37.75;98821.28;5046678;28;20113;-66
2022/10/02 11:32:50;;;;;;;1.50;1.40;;;;;;;21.28;39.58;98814.22;5038937;28;20440;-66
2022/10/02 11:35:47;;;;;;;0.50;0.50;;;;;;;22.46;37.02;98811.56;5041547;28;20107;-68
2022/10/02 11:38:51;;;;;;;0.30;0.30;;;;;;;20.61;40.07;98814.22;5041651;28;20185;-66
2022/10/02 11:41:33;;;;;;;0.30;0.30;;;;;;;18.80;43.45;98812.75;5036369;28;20045;-66
2022/10/02 11:44:10;;;;;;;0.30;0.30;;;;;;;17.27;46.72;98819.28;5037585;28;20998;-66
2022/10/02 11:46:54;;;;;;;0.20;0.20;;;;;;;16.37;48.92;98811.44;5043736;28;20072;-66
2022/10/02 11:49:57;;;;;;;0.30;0.30;;;;;;;15.88;50.32;98804.47;5035146;28;20060;-65
2022/10/02 11:52:54;;;;;;;0.47;0.40;;;;;;;15.88;50.43;98800.91;5037844;28;20524;-66
2022/10/02 11:55:33;;;;;;;0.35;0.35;;;;;;;16.15;50.05;98807.06;5039914;28;20144;-65
2022/10/02 11:58:13;;;;;;;0.40;0.40;;;;;;;16.67;49.50;98807.72;5037931;28;20136;-66
2022/10/02 12:01:04;;;;;;;0.50;0.50;;;;;;;16.91;48.49;98812.50;5049005;28;20053;-66
2022/10/02 12:03:45;;;;;;;0.70;0.70;;;;;;;17.22;47.41;98802.16;5041997;28;20456;-66
2022/10/02 12:06:22;;;;;;;1.10;1.10;;;;;;;18.69;44.96;98795.84;5059315;28;20049;-65
2022/10/02 12:08:59;;;;;;;0.90;0.90;;;;;;;20.25;41.30;98788.50;5051678;28;20056;-67
2022/10/02 12:11:35;;;;;;;0.70;0.70;;;;;;;20.67;40.03;98784.97;5058719;28;20049;-67
2022/10/02 12:14:24;;;;;;;0.80;0.80;;;;;;;20.32;40.54;98790.63;5037119;28;20509;-66
2022/10/02 12:17:04;;;;;;;1.20;1.20;;;;;;;21.01;39.80;98786.41;5037920;28;20048;-68
2022/10/02 12:28:36;;;;;;;0.30;0.30;;;;;;;24.35;32.71;98765.69;5049392;28;20045;-67
2022/10/02 12:31:09;;;;;;;0.30;0.30;;;;;;;21.60;36.96;98761.09;5047150;28;20040;-66
2022/10/02 12:33:44;;;;;;;0.30;0.30;;;;;;;19.91;40.78;98760.44;5047224;28;20045;-65
2022/10/02 12:36:37;;;;;;;0.30;0.30;;;;;;;18.77;42.33;98758.91;5047579;28;20048;-68
2022/10/02 12:39:25;;;;;;;0.60;0.60;;;;;;;17.98;44.56;98754.72;5042746;28;20041;-67
2022/10/02 12:42:25;;;;;;;1.10;1.10;;;;;;;18.94;43.11;98748.66;5043161;28;20052;-66
2022/10/02 12:45:21;;;;;;;0.40;0.40;;;;;;;19.89;40.75;98738.59;5005098;28;20045;-65
2022/10/02 12:48:06;;;;;;;0.60;0.60;;;;;;;19.75;41.15;98744.66;5043145;28;20268;-65
2022/10/02 12:51:15;;;;;;;0.50;0.50;;;;;;;19.54;41.10;98742.97;5040737;28;20530;-65